KCZZ

Campo Airport

Campo, California, USA
METAR KCZZ 150052Z AUTO 22014KT 27/16 A2987 RMK AO1 SLP086 T02670161
Observed Flight Rules
Aug-15 @ 00:52 UTC (15 minutes ago)
Wind
220° at 14 knots
Temperatures Readings
Current 27°C / 81°F
Dewpoint 16°C / 61°F
Humidity 51%
Altimeter 29.87" Hg
Pressure 1008.6 hPa
Elevation 807
METAR KCZZ 150052Z AUTO 22014KT 27/16 A2987 RMK AO1 SLP086 T02670161
Observed Flight Rules
Aug-15 @ 00:52 UTC
(15 minutes ago)
Wind
220° at 14 knots
Temperature Dewpoint
27°C / 81°F 16°C / 61°F
Humidity Altimeter Pressure
51% 29.87" Hg 1008.6 hPa